Accueil
METAR-TAF:

METAR-TAF

Aéroports :

Aéroport international Maiquetía - Simón Bolívar

Caracas, Venezuela

latitude: 10-36N, longitude: 066-59W, altitude: 43 m

Observation

Le bulletin a été fait il y a 28 minutes, à 06:00 UTC
Vent calme
Température 25°C
Humidité 89%
Pression 1009 hPa
Visibilité 10 km ou plus
Nuages épars à une hauteur de 1600 ft

METAR: SVMI 210600Z 00000KT 9999 SCT016 25/23 Q1009

Heure: 02:28 (06:28 UTC)

Prévision

Le bulletin a été fait il y a 2 heures et 28 minutes, à 04:00 UTC
Prévision valable du 21 à 06 UTC au 22 à 06 UTC
Vent 7 kt de est/nord-est
Visibilité 10 km ou plus
Nuages épars à une hauteur de 1600 ft
Evoluant progressivement
du 21 à 06 UTC au 21 à 10 UTC
Vent 5 kt de est
Visibilité: 9000 m
Nuages épars à une hauteur de 1300 ft
Nuages épars à une hauteur de 7000 ft
faible bruine

TAF: SVMI 210400Z 2106/2206 07007KT 9999 SCT016 TX34/19Z TN24/09Z BECMG 2106/2110 09005KT 9000 -DZ SCT013 SCT070

Observations et prévisions météorologiques de plus de 4000 aéroports (messages METAR et TAF).

Les stations disponibles sont représentées par des disques jaunes et rouges sur la carte.

Passer la souris dessus pour voir le nom de la station.

Cliquer dessus pour voir les observations et prévisions météorologiques.

Pour changer de carte: cliquez sur les boutons verts avec une croix noire pour zoomer, sur le bouton vert avec un tiret pour effectuer un zoom arrière, ou sur les flèches vertes pour les cartes adjacentes.


METAR-TAF: